Overview Statistics Trail Chart Weather Telemetry Raw packets
 

This is the latest recevied weather packets stored in our database for station/object OE5RBO. If no packets are shown the sender has not sent any weather packets the latest 10 day(s).

<< 34 35 36 37 38 39 40 >>
Time Temp. Humidity Pressure Rain* Wind** Luminosity Snow
1788032450 17.78° C 89% 1016.9 hPa 0 mm - - -
1788031849 17.78° C 85% 1016.8 hPa 0 mm - - -
1788031249 18.33° C 85% 1016.7 hPa 0 mm - - -
1788030649 18.33° C 86% 1016.8 hPa 0 mm - - -
1788030048 18.89° C 85% 1016.6 hPa 0 mm - - -
1788029447 18.89° C 84% 1016.6 hPa 0 mm - - -
1788028847 19.44° C 83% 1016.5 hPa 0 mm - - -
1788028247 20° C 79% 1016.6 hPa 0 mm - - -
1788027646 20.56° C 77% 1016.6 hPa 0 mm - - -
1788027046 21.11° C 72% 1016.5 hPa 0 mm - - -
1788026446 21.11° C 70% 1016.4 hPa 0 mm - - -
1788025845 20.56° C 73% 1016.4 hPa 0 mm - - -
1788025245 20.56° C 74% 1016.4 hPa 0 mm - - -
1788024645 20° C 78% 1016.3 hPa 0 mm - - -
1788024044 20.56° C 81% 1016.3 hPa 0 mm - - -
1788023444 21.11° C 76% 1016.4 hPa 0 mm - - -
1788022243 23.89° C 67% 1016.5 hPa 0 mm - - -
1788021643 26.11° C 59% 1016.5 hPa 0 mm - - -
1788021042 25.56° C 54% 1016.6 hPa 0 mm - - -
1788020442 24.44° C 68% 1016.6 hPa 0 mm - - -
1788019842 24.44° C 67% 1016.7 hPa 0 mm - - -
1788019241 25° C 66% 1016.7 hPa 0 mm - - -
1788018641 25° C 59% 1016.7 hPa 0 mm - - -
1788018041 25° C 55% 1016.7 hPa 0 mm - - -
1788016840 26.11° C 55% 1016.7 hPa 0 mm - - -

* Rain since midnight (hover to see other rain measurements)
** Current wind speed in m/s (hover to see current wind gust speed)